Rawalpindi Weather



Rawalpindi's Current Weather

Temprature 12o smoke

smoke

Rain: 0 %

Min Temprature12o
Max Temprature12o
Humidity71
Wind Speed1.31 m/h
Sun Rise06:23:07
Sun Set17:19:40
Current Time: 28-Oct-2020 08:22:29
Lat/Lon: 33.6, 73.07




Rawalpindi's Geo Location



Rawalpindi's Weather Forecast

Time Overall Temp Min Temp Max Temp Humidity Wind Speed Rain
28-Oct-2020 (Wed)
11:00:00 clear sky 19.430 19.430 27.230 44 1.74 m/h 0 %
14:00:00 clear sky 25.340 25.340 29.020 26 1.98 m/h 0 %
17:00:00 clear sky 23.090 23.090 23.850 22 0.87 m/h 0 %
20:00:00 clear sky 20.120 20.120 20.190 24 1.9 m/h 0 %
23:00:00 clear sky 19.650 19.650 19.650 24 3.32 m/h 0 %
29-Oct-2020 (Thu)
02:00:00 clear sky 18.230 18.230 18.230 26 2.7 m/h 0 %
05:00:00 clear sky 16.610 16.610 16.610 29 1.59 m/h 0 %
08:00:00 clear sky 21.260 21.260 21.260 22 1.46 m/h 0 %
11:00:00 clear sky 27.240 27.240 27.240 16 1.67 m/h 0 %
14:00:00 scattered clouds 28.810 28.810 28.810 14 1.91 m/h 0 %
17:00:00 scattered clouds 24.640 24.640 24.640 19 2.56 m/h 0 %
20:00:00 clear sky 20.820 20.820 20.820 24 2.58 m/h 0 %
23:00:00 clear sky 19.040 19.040 19.040 26 2.58 m/h 0 %
30-Oct-2020 (Fri)
02:00:00 clear sky 17.630 17.630 17.630 28 2.01 m/h 0 %
05:00:00 clear sky 16.350 16.350 16.350 31 1.48 m/h 0 %
08:00:00 clear sky 20.290 20.290 20.290 24 1.29 m/h 0 %
11:00:00 clear sky 27.210 27.210 27.210 16 2.66 m/h 0 %
14:00:00 clear sky 29.320 29.320 29.320 13 4.17 m/h 0 %
17:00:00 clear sky 23.940 23.940 23.940 19 3.48 m/h 0 %
20:00:00 clear sky 20.110 20.110 20.110 23 2.63 m/h 0 %
23:00:00 clear sky 17.840 17.840 17.840 26 1.91 m/h 0 %
31-Oct-2020 (Sat)
02:00:00 clear sky 16.520 16.520 16.520 28 1.81 m/h 0 %
05:00:00 clear sky 15.490 15.490 15.490 31 1.72 m/h 0 %
08:00:00 clear sky 19.460 19.460 19.460 24 1.44 m/h 0 %
11:00:00 clear sky 27.140 27.140 27.140 15 2.99 m/h 0 %
14:00:00 clear sky 29.290 29.290 29.290 13 5.04 m/h 0 %
17:00:00 clear sky 23.730 23.730 23.730 18 3.46 m/h 0 %
20:00:00 clear sky 20.010 20.010 20.010 21 2.37 m/h 0 %
23:00:00 clear sky 17.780 17.780 17.780 24 1.73 m/h 0 %
01-Nov-2020 (Sun)
02:00:00 clear sky 16.190 16.190 16.190 28 1.47 m/h 0 %
05:00:00 clear sky 15.500 15.500 15.500 29 1.26 m/h 0 %
08:00:00 clear sky 20.110 20.110 20.110 22 1.17 m/h 0 %
11:00:00 clear sky 27.200 27.200 27.200 15 2.56 m/h 0 %
14:00:00 clear sky 29.730 29.730 29.730 13 4.57 m/h 0 %
17:00:00 clear sky 23.990 23.990 23.990 18 2.99 m/h 0 %
20:00:00 clear sky 19.580 19.580 19.580 22 1.57 m/h 0 %
23:00:00 clear sky 17.510 17.510 17.510 26 1.52 m/h 0 %
02-Nov-2020 (Mon)
02:00:00 clear sky 16.850 16.850 16.850 28 2.16 m/h 0 %
05:00:00 clear sky 15.810 15.810 15.810 30 1.62 m/h 0 %
08:00:00 clear sky 20.920 20.920 20.920 22 1.09 m/h 0 %


Rawalpindi's Tourist Spots

Parks and Zoos in Rawalpindi

Famous Cities (60)